Time;durP1;ratioP1;P1;durP2;ratioP2;P2;SDS_P1;SDS_P2;PMS_P1;PMS_P2;Temp;Humidity;BMP_temperature;BMP_pressure;BME280_temperature;BME280_humidity;BME280_pressure;Samples;Min_cycle;Max_cycle;Signal;HPM_P1;HPM_P2
2022/06/16 00:01:34;;;;;;;6.93;5.88;;;;;;;18.35;58.46;95349.81;5047364;28;20201;-63
2022/06/16 00:04:02;;;;;;;5.93;5.25;;;;;;;18.40;58.31;95352.72;5060319;28;20217;-62
2022/06/16 00:06:28;;;;;;;6.20;5.63;;;;;;;18.38;58.92;95348.59;5054366;28;20243;-65
2022/06/16 00:08:53;;;;;;;8.02;5.28;;;;;;;18.21;58.67;95343.53;5059296;28;20229;-65
2022/06/16 00:11:21;;;;;;;7.13;5.82;;;;;;;18.30;58.28;95341.56;5053576;28;20519;-65
2022/06/16 00:13:49;;;;;;;10.43;5.78;;;;;;;18.21;58.48;95348.03;5057580;28;20206;-70
2022/06/16 00:16:14;;;;;;;5.15;4.75;;;;;;;18.20;58.61;95341.91;5055070;28;20279;-69
2022/06/16 00:18:41;;;;;;;6.20;5.43;;;;;;;18.12;59.26;95344.66;5055441;28;20221;-67
2022/06/16 00:21:08;;;;;;;6.90;5.90;;;;;;;18.34;59.82;95340.19;5047860;28;20327;-69
2022/06/16 00:23:33;;;;;;;8.77;6.18;;;;;;;18.35;59.69;95344.47;5052241;28;20323;-63
2022/06/16 00:25:59;;;;;;;7.38;6.60;;;;;;;18.30;59.79;95346.88;5056133;28;20308;-65
2022/06/16 00:28:24;;;;;;;6.88;6.20;;;;;;;18.10;60.19;95333.41;5037105;28;20209;-69
2022/06/16 00:30:50;;;;;;;8.95;6.20;;;;;;;18.17;60.19;95336.13;5038416;28;20225;-62
2022/06/16 00:33:16;;;;;;;7.00;6.10;;;;;;;17.92;61.16;95333.03;5026868;28;20233;-65
2022/06/16 00:35:41;;;;;;;7.90;5.78;;;;;;;18.18;60.44;95351.91;5033697;28;20228;-61
2022/06/16 00:38:07;;;;;;;6.82;6.10;;;;;;;17.93;61.44;95346.13;5032462;28;20225;-64
2022/06/16 00:40:32;;;;;;;7.05;6.03;;;;;;;17.74;62.02;95342.22;5046813;28;20209;-64
2022/06/16 00:42:58;;;;;;;7.53;6.18;;;;;;;17.80;61.80;95348.63;5031896;28;20216;-71
2022/06/16 00:45:48;;;;;;;7.20;6.00;;;;;;;17.79;61.84;95344.34;5034929;28;20312;-70
2022/06/16 00:48:25;;;;;;;9.50;6.43;;;;;;;17.68;61.86;95332.34;5034771;28;20291;-70
2022/06/16 00:51:00;;;;;;;7.70;5.88;;;;;;;17.67;62.16;95345.81;5038308;28;20638;-64
2022/06/16 00:53:28;;;;;;;7.13;5.80;;;;;;;17.71;61.83;95331.94;5021417;28;20224;-66
2022/06/16 00:55:54;;;;;;;10.73;6.43;;;;;;;17.63;62.05;95338.19;5067895;28;20300;-64
2022/06/16 00:58:22;;;;;;;7.95;6.47;;;;;;;17.65;62.16;95332.72;5060432;28;20336;-65
2022/06/16 01:00:50;;;;;;;7.28;6.47;;;;;;;17.72;61.98;95332.78;5053157;28;20212;-62
2022/06/16 01:06:14;;;;;;;6.90;6.30;;;;;;;17.66;61.90;95328.22;5053506;28;20324;-70
2022/06/16 01:08:42;;;;;;;10.13;6.45;;;;;;;17.39;63.56;95325.25;5093430;28;20292;-64
2022/06/16 01:13:41;;;;;;;6.25;5.75;;;;;;;17.20;63.56;95324.81;5063747;28;20229;-65
2022/06/16 01:14:10;;;;;;;7.32;6.70;;;;;;;17.13;64.33;95329.25;5052923;28;20233;-64
2022/06/16 01:16:42;;;;;;;8.20;7.40;;;;;;;17.45;62.45;95329.00;5054912;28;20227;-65
2022/06/16 01:19:20;;;;;;;8.45;7.10;;;;;;;17.25;63.34;95331.41;5059384;28;20215;-66
2022/06/16 01:22:11;;;;;;;9.57;7.00;;;;;;;17.22;63.28;95327.28;5054182;28;20301;-64
2022/06/16 01:24:56;;;;;;;8.30;6.88;;;;;;;17.41;62.75;95331.22;5055067;28;20320;-66
2022/06/16 01:27:29;;;;;;;9.38;6.85;;;;;;;17.36;63.31;95323.78;5059116;28;20244;-61
2022/06/16 01:30:05;;;;;;;8.75;7.35;;;;;;;17.53;62.37;95327.03;5052098;28;20229;-66
2022/06/16 01:32:45;;;;;;;7.63;6.70;;;;;;;17.26;63.41;95328.56;5060349;28;20314;-68
2022/06/16 01:35:11;;;;;;;8.85;6.78;;;;;;;17.18;63.96;95326.00;5062758;28;20250;-62
2022/06/16 01:38:04;;;;;;;6.93;6.22;;;;;;;17.04;64.68;95321.53;5057296;28;20293;-69
2022/06/16 01:41:20;;;;;;;7.43;6.72;;;;;;;17.25;63.51;95326.09;5072263;28;20193;-65
2022/06/16 01:44:01;;;;;;;7.80;7.10;;;;;;;17.34;63.00;95314.34;5079713;28;20235;-64
2022/06/16 01:46:32;;;;;;;7.50;6.80;;;;;;;17.14;63.84;95312.28;5065791;28;20311;-64
2022/06/16 01:49:03;;;;;;;8.35;7.22;;;;;;;17.15;64.14;95315.75;5065545;28;20228;-62
2022/06/16 01:51:36;;;;;;;8.77;7.65;;;;;;;17.12;64.02;95311.63;5067763;28;20330;-64
2022/06/16 01:54:11;;;;;;;8.70;7.35;;;;;;;17.18;63.86;95305.56;5063405;28;20227;-71
2022/06/16 01:56:44;;;;;;;7.47;6.78;;;;;;;17.30;63.12;95305.13;5081069;28;20232;-66
2022/06/16 01:59:17;;;;;;;7.45;6.82;;;;;;;17.26;63.29;95301.16;5082642;28;20293;-69
2022/06/16 02:01:48;;;;;;;7.25;6.55;;;;;;;17.16;63.50;95307.59;5062436;28;20232;-64
2022/06/16 02:04:28;;;;;;;7.80;7.07;;;;;;;17.30;62.74;95303.28;5066604;28;20219;-64
2022/06/16 02:06:58;;;;;;;8.10;7.30;;;;;;;17.29;62.76;95306.09;5067722;28;20224;-62
2022/06/16 02:09:28;;;;;;;8.70;7.47;;;;;;;17.18;62.97;95307.41;5068162;28;20259;-68
2022/06/16 02:11:57;;;;;;;7.85;7.22;;;;;;;17.12;63.24;95310.81;5068157;28;20228;-69
2022/06/16 02:14:38;;;;;;;7.97;7.18;;;;;;;16.94;63.53;95309.34;5060707;28;20242;-65
2022/06/16 02:17:04;;;;;;;8.45;6.90;;;;;;;16.96;63.65;95310.00;5078967;28;20287;-64
2022/06/16 02:19:31;;;;;;;9.30;7.43;;;;;;;16.92;63.84;95315.84;5057049;28;20220;-69
2022/06/16 02:21:56;;;;;;;7.93;7.13;;;;;;;16.85;63.96;95314.94;5065250;28;20220;-67
2022/06/16 02:24:25;;;;;;;7.72;7.00;;;;;;;16.67;65.00;95318.75;5055846;28;20232;-71
2022/06/16 02:26:54;;;;;;;10.50;7.40;;;;;;;16.61;65.23;95316.00;5059783;28;20236;-63
2022/06/16 02:29:34;;;;;;;7.82;7.13;;;;;;;16.38;65.99;95326.66;5053666;28;20247;-67
2022/06/16 02:32:18;;;;;;;8.88;7.13;;;;;;;16.39;66.24;95320.38;5070457;28;20217;-63
2022/06/16 02:34:55;;;;;;;8.20;7.38;;;;;;;16.44;66.17;95325.94;5050346;28;20235;-67
2022/06/16 02:37:30;;;;;;;8.60;7.38;;;;;;;16.68;65.49;95331.03;5072743;28;20205;-71
2022/06/16 02:40:21;;;;;;;8.00;7.40;;;;;;;16.74;65.51;95335.59;5070704;28;20236;-68
2022/06/16 02:43:21;;;;;;;8.20;7.43;;;;;;;16.84;65.04;95337.19;5057876;28;20228;-66
2022/06/16 02:46:07;;;;;;;8.48;7.20;;;;;;;16.81;64.99;95334.91;5052294;28;20283;-63
2022/06/16 02:48:39;;;;;;;8.13;7.43;;;;;;;17.00;63.90;95339.69;5057476;28;20237;-66
2022/06/16 02:51:12;;;;;;;8.45;7.65;;;;;;;17.01;63.73;95330.69;5057130;28;20512;-67
2022/06/16 02:56:52;;;;;;;9.75;7.72;;;;;;;16.99;63.91;95338.03;5056589;28;20225;-67
2022/06/16 02:59:23;;;;;;;8.57;7.75;;;;;;;17.00;63.90;95330.88;5057026;28;20231;-64
2022/06/16 03:01:50;;;;;;;8.07;7.38;;;;;;;16.87;63.86;95339.50;5060334;28;20211;-64
2022/06/16 03:04:18;;;;;;;8.55;7.65;;;;;;;16.92;64.21;95339.75;5052639;28;20239;-69
2022/06/16 03:06:45;;;;;;;8.32;7.53;;;;;;;17.04;63.65;95343.59;5054368;28;20221;-66
2022/06/16 03:09:12;;;;;;;7.95;7.25;;;;;;;16.93;64.07;95339.59;5060067;28;20251;-66
2022/06/16 03:11:39;;;;;;;8.95;8.15;;;;;;;17.10;63.65;95340.22;5058021;28;20700;-66
2022/06/16 03:14:05;;;;;;;8.15;7.35;;;;;;;17.14;63.45;95338.03;5070454;28;20236;-65
2022/06/16 03:16:32;;;;;;;7.22;6.60;;;;;;;17.05;63.64;95331.97;5056222;28;20209;-62
2022/06/16 03:18:57;;;;;;;8.93;7.82;;;;;;;17.18;63.17;95342.78;5053651;28;20255;-66
2022/06/16 03:21:23;;;;;;;8.07;7.35;;;;;;;17.16;63.19;95344.81;5058376;28;20245;-69
2022/06/16 03:23:49;;;;;;;9.15;7.00;;;;;;;17.14;63.19;95333.53;5046076;28;20225;-65
2022/06/16 03:26:15;;;;;;;9.93;8.20;;;;;;;17.18;62.65;95342.78;5035660;28;20229;-66
2022/06/16 03:28:40;;;;;;;9.85;7.97;;;;;;;17.20;62.99;95338.09;5030322;28;20233;-61
2022/06/16 03:31:06;;;;;;;8.98;8.18;;;;;;;17.16;62.88;95334.19;5037862;28;20210;-69
2022/06/16 03:33:32;;;;;;;8.93;8.00;;;;;;;17.15;63.26;95335.16;5035633;28;20301;-66
2022/06/16 03:35:57;;;;;;;10.23;8.68;;;;;;;17.10;63.24;95328.75;5043227;28;20222;-67
2022/06/16 03:40:57;;;;;;;8.93;8.13;;;;;;;17.03;63.66;95331.34;5034439;28;20229;-68
2022/06/16 03:43:23;;;;;;;8.35;7.55;;;;;;;17.12;63.41;95332.88;5040192;28;20201;-70
2022/06/16 03:45:49;;;;;;;11.20;8.25;;;;;;;17.22;62.75;95326.47;5041497;28;20224;-70
2022/06/16 03:48:14;;;;;;;8.82;7.93;;;;;;;17.32;62.47;95335.81;5047419;28;20312;-66
2022/06/16 03:50:40;;;;;;;8.82;7.97;;;;;;;17.27;62.83;95337.34;5032629;28;20261;-65
2022/06/16 03:53:05;;;;;;;8.98;8.10;;;;;;;17.19;62.70;95331.16;5040691;28;20232;-69
2022/06/16 03:55:31;;;;;;;8.68;7.90;;;;;;;17.17;62.89;95327.03;5038771;28;20240;-69
2022/06/16 03:57:57;;;;;;;8.82;7.90;;;;;;;17.19;63.06;95339.13;5033878;28;20213;-66
2022/06/16 04:00:23;;;;;;;8.23;7.47;;;;;;;17.26;62.98;95333.06;5032716;28;20253;-67
2022/06/16 04:03:59;;;;;;;9.70;8.90;;;;;;;17.11;63.33;95331.25;5039252;28;20316;-65
2022/06/16 04:05:40;;;;;;;9.77;8.98;;;;;;;17.01;63.98;95337.84;5032707;28;20239;-69
2022/06/16 04:08:07;;;;;;;11.30;10.32;;;;;;;16.98;63.99;95331.06;5033674;28;20226;-63
2022/06/16 04:10:33;;;;;;;12.73;10.82;;;;;;;17.10;63.83;95339.38;5051621;28;20292;-67
2022/06/16 04:12:58;;;;;;;11.45;10.32;;;;;;;17.15;63.23;95337.81;5036810;28;20209;-71
2022/06/16 04:15:24;;;;;;;10.35;9.25;;;;;;;17.25;63.32;95337.56;5049173;28;20226;-66
2022/06/16 04:17:49;;;;;;;10.15;9.23;;;;;;;17.05;64.17;95331.97;5048697;28;20214;-69
2022/06/16 04:20:15;;;;;;;10.07;9.23;;;;;;;16.90;65.19;95342.59;5035259;28;20246;-65
2022/06/16 04:22:41;;;;;;;10.88;9.77;;;;;;;16.98;65.19;95337.19;5036023;28;20328;-67
2022/06/16 04:25:14;;;;;;;10.38;9.27;;;;;;;17.32;63.93;95340.28;5043722;28;20213;-71
2022/06/16 04:27:42;;;;;;;11.63;10.48;;;;;;;17.40;63.77;95345.50;5055525;28;20267;-65
2022/06/16 04:30:08;;;;;;;11.02;9.57;;;;;;;17.19;64.76;95339.13;5050411;28;20225;-65
2022/06/16 04:32:34;;;;;;;11.13;9.73;;;;;;;17.39;64.10;95338.53;5050433;28;20217;-69
2022/06/16 04:34:59;;;;;;;11.23;9.68;;;;;;;17.56;63.52;95334.66;5064663;28;20221;-71
2022/06/16 04:37:25;;;;;;;12.95;9.95;;;;;;;17.58;63.63;95332.63;5051592;28;20243;-65
2022/06/16 04:39:50;;;;;;;12.52;9.82;;;;;;;17.67;63.53;95335.16;5057327;28;20225;-65
2022/06/16 04:42:16;;;;;;;13.30;9.65;;;;;;;17.66;63.67;95328.22;5059086;28;20229;-70
2022/06/16 04:44:41;;;;;;;9.80;8.93;;;;;;;17.60;64.14;95330.59;5052382;28;20217;-64
2022/06/16 04:47:08;;;;;;;10.73;9.73;;;;;;;17.67;64.06;95332.50;5052273;28;20278;-70
2022/06/16 04:49:37;;;;;;;10.60;9.60;;;;;;;17.75;63.91;95332.38;5049727;28;20201;-63
2022/06/16 04:52:06;;;;;;;10.93;9.82;;;;;;;17.87;63.55;95341.56;5043632;28;20215;-62
2022/06/16 04:54:32;;;;;;;11.23;9.60;;;;;;;18.03;62.96;95346.63;5057028;28;20248;-66
2022/06/16 04:56:58;;;;;;;10.55;9.57;;;;;;;17.78;63.67;95337.34;5052658;28;20224;-71
2022/06/16 04:59:24;;;;;;;12.95;10.60;;;;;;;17.97;63.11;95347.41;5051885;28;20240;-62
2022/06/16 05:01:49;;;;;;;11.40;10.40;;;;;;;17.80;63.18;95343.31;5050500;28;20216;-66
2022/06/16 05:04:17;;;;;;;11.05;9.95;;;;;;;17.80;63.50;95338.84;5059336;28;20217;-66
2022/06/16 05:06:43;;;;;;;12.35;10.93;;;;;;;18.05;62.97;95336.63;5057735;28;20268;-66
2022/06/16 05:09:08;;;;;;;12.30;11.10;;;;;;;18.06;63.11;95340.13;5055006;28;20240;-69
2022/06/16 05:11:34;;;;;;;12.65;11.10;;;;;;;18.03;62.89;95329.84;5050129;28;20255;-70
2022/06/16 05:14:00;;;;;;;11.18;9.95;;;;;;;18.18;62.70;95332.47;5056455;28;20271;-65
2022/06/16 05:16:27;;;;;;;11.60;10.40;;;;;;;18.35;62.21;95344.47;5060753;28;20197;-61
2022/06/16 05:18:54;;;;;;;11.77;10.68;;;;;;;18.44;61.77;95339.81;5056753;28;20212;-68
2022/06/16 05:21:20;;;;;;;13.63;12.15;;;;;;;18.47;61.63;95340.28;5052915;28;20567;-62
2022/06/16 05:23:46;;;;;;;14.30;12.60;;;;;;;18.58;61.88;95340.75;5056039;28;20227;-63
2022/06/16 05:26:12;;;;;;;15.43;13.93;;;;;;;18.58;62.27;95346.06;5053905;28;20565;-70
2022/06/16 05:28:38;;;;;;;15.73;14.23;;;;;;;18.54;61.73;95344.84;5059612;28;20201;-68
2022/06/16 05:31:03;;;;;;;17.10;15.48;;;;;;;18.63;61.72;95352.50;5059931;28;20205;-71
2022/06/16 05:33:29;;;;;;;18.13;14.30;;;;;;;18.69;61.96;95345.56;5054259;28;20230;-66
2022/06/16 05:36:14;;;;;;;15.50;13.98;;;;;;;18.67;62.08;95348.41;5059187;28;20622;-65
2022/06/16 05:38:40;;;;;;;17.38;14.93;;;;;;;18.73;61.68;95352.13;5050758;28;20433;-64
2022/06/16 05:41:10;;;;;;;16.40;14.90;;;;;;;18.48;62.84;95351.75;5058680;28;20309;-68
2022/06/16 05:43:36;;;;;;;18.02;14.15;;;;;;;18.64;62.72;95348.81;5057390;28;20372;-75
2022/06/16 05:46:07;;;;;;;14.38;13.15;;;;;;;18.80;62.04;95352.22;5049388;28;20220;-69
2022/06/16 05:48:33;;;;;;;15.98;14.40;;;;;;;18.80;61.63;95360.22;5050982;28;20225;-72
2022/06/16 05:51:08;;;;;;;15.32;13.77;;;;;;;18.65;62.20;95361.09;5056861;28;20229;-70
2022/06/16 05:53:34;;;;;;;15.05;13.65;;;;;;;18.71;62.22;95362.16;5056790;28;20228;-67
2022/06/16 05:55:59;;;;;;;15.75;13.80;;;;;;;18.72;62.19;95353.97;5066929;28;20225;-65
2022/06/16 05:58:25;;;;;;;16.02;14.45;;;;;;;18.79;61.74;95356.75;5074042;28;20291;-66
2022/06/16 06:00:50;;;;;;;17.05;14.52;;;;;;;18.86;61.95;95352.25;5061277;28;20220;-72
2022/06/16 06:03:16;;;;;;;15.20;13.32;;;;;;;18.86;61.90;95346.94;5058481;28;20949;-67
2022/06/16 06:05:41;;;;;;;18.10;15.13;;;;;;;19.02;61.81;95350.31;5053936;28;20315;-71
2022/06/16 06:16:54;;;;;;;16.30;13.82;;;;;;;19.24;61.66;95349.19;5057126;28;20210;-65
2022/06/16 06:19:24;;;;;;;15.18;13.65;;;;;;;19.27;61.94;95348.84;5056311;28;20232;-72
2022/06/16 06:22:07;;;;;;;17.17;15.05;;;;;;;19.24;62.36;95349.19;5051604;28;20243;-67
2022/06/16 06:24:37;;;;;;;17.70;15.73;;;;;;;19.41;61.47;95349.72;5048903;28;20228;-69
2022/06/16 06:27:18;;;;;;;18.70;16.77;;;;;;;19.35;61.89;95350.47;5059456;28;20229;-63
2022/06/16 06:29:48;;;;;;;18.13;15.82;;;;;;;19.42;61.87;95346.00;5061284;28;20229;-64
2022/06/16 06:32:15;;;;;;;19.35;16.40;;;;;;;19.49;62.51;95349.53;5058144;28;20282;-67
2022/06/16 06:34:41;;;;;;;16.63;14.88;;;;;;;19.59;62.40;95351.81;5062521;28;20219;-67
2022/06/16 06:37:07;;;;;;;17.27;15.65;;;;;;;19.68;61.91;95348.00;5059080;28;20201;-69
2022/06/16 06:39:33;;;;;;;19.45;15.63;;;;;;;19.64;62.04;95349.38;5040957;28;20275;-69
2022/06/16 06:41:59;;;;;;;17.08;15.38;;;;;;;19.52;62.88;95362.47;5062892;28;20221;-69
2022/06/16 06:44:25;;;;;;;17.02;15.25;;;;;;;19.57;62.68;95364.56;5059473;28;20278;-70
2022/06/16 06:46:50;;;;;;;18.27;15.23;;;;;;;19.72;61.96;95354.56;5061603;28;20213;-66
2022/06/16 06:49:16;;;;;;;16.92;15.32;;;;;;;19.61;63.24;95360.44;5051569;28;20205;-69
2022/06/16 06:51:42;;;;;;;17.52;15.77;;;;;;;19.91;62.50;95354.81;5056724;28;20259;-64
2022/06/16 06:54:08;;;;;;;19.17;16.45;;;;;;;20.12;61.81;95346.66;5056719;28;20500;-67
2022/06/16 06:56:34;;;;;;;17.40;15.75;;;;;;;19.99;61.81;95349.31;5057816;28;20228;-72
2022/06/16 06:59:04;;;;;;;19.50;17.35;;;;;;;20.21;61.02;95350.78;5057121;28;20225;-67
2022/06/16 07:01:30;;;;;;;19.73;16.08;;;;;;;20.30;60.87;95348.75;5051307;28;20256;-67
2022/06/16 07:03:58;;;;;;;18.33;16.63;;;;;;;20.57;60.42;95349.59;5058952;28;20253;-70
2022/06/16 07:06:24;;;;;;;18.00;16.20;;;;;;;20.48;60.66;95346.28;5051578;28;20268;-67
2022/06/16 07:08:50;;;;;;;18.48;16.77;;;;;;;20.49;60.91;95345.25;5049324;28;20299;-70
2022/06/16 07:11:15;;;;;;;20.17;17.77;;;;;;;20.98;59.69;95345.84;5051699;28;20229;-68
2022/06/16 07:13:41;;;;;;;19.35;17.52;;;;;;;21.18;59.13;95337.00;5056713;28;20209;-69
2022/06/16 07:16:08;;;;;;;20.38;18.55;;;;;;;21.13;59.10;95343.78;5056256;28;20193;-65
2022/06/16 07:18:33;;;;;;;21.50;19.40;;;;;;;21.35;57.87;95335.50;5060102;28;20224;-65
2022/06/16 07:21:02;;;;;;;21.00;18.95;;;;;;;21.45;57.59;95341.25;5060590;28;20225;-66
2022/06/16 07:23:27;;;;;;;20.98;18.98;;;;;;;21.78;56.90;95340.28;5057116;28;20317;-66
2022/06/16 07:25:53;;;;;;;21.73;19.42;;;;;;;21.95;56.11;95338.75;5061592;28;20232;-67
2022/06/16 07:28:19;;;;;;;20.98;18.80;;;;;;;22.22;54.63;95341.31;5059815;28;20197;-69
2022/06/16 07:30:45;;;;;;;20.83;18.85;;;;;;;22.39;54.20;95330.88;5054276;28;20247;-64
2022/06/16 07:33:12;;;;;;;22.02;19.95;;;;;;;22.39;53.91;95341.59;5055672;28;20229;-69
2022/06/16 07:35:41;;;;;;;20.20;18.33;;;;;;;22.37;54.03;95338.31;5058774;28;20229;-69
2022/06/16 07:38:07;;;;;;;20.67;18.88;;;;;;;21.72;54.46;95336.59;5056287;28;20419;-64
2022/06/16 07:40:33;;;;;;;23.33;20.58;;;;;;;21.90;54.09;95327.88;5053889;28;20283;-67
2022/06/16 07:42:59;;;;;;;23.08;20.98;;;;;;;22.16;54.32;95331.41;5053371;28;20279;-68
2022/06/16 07:45:26;;;;;;;22.35;20.33;;;;;;;22.43;53.64;95334.78;5053508;28;20229;-67
2022/06/16 07:47:52;;;;;;;20.70;18.73;;;;;;;22.43;53.33;95332.91;5050156;28;20454;-63
2022/06/16 07:50:19;;;;;;;20.02;18.23;;;;;;;22.29;52.75;95334.03;5055932;28;20777;-63
2022/06/16 07:52:44;;;;;;;22.25;20.15;;;;;;;22.35;52.22;95327.00;5058159;28;20209;-64
2022/06/16 07:55:11;;;;;;;20.48;18.73;;;;;;;22.44;51.87;95331.03;5054985;28;20267;-69
2022/06/16 07:57:42;;;;;;;21.05;19.23;;;;;;;22.13;52.51;95332.69;5058980;28;20359;-64
2022/06/16 08:00:11;;;;;;;21.67;19.67;;;;;;;22.43;52.37;95332.91;5073230;28;20216;-62
2022/06/16 08:02:37;;;;;;;20.75;19.00;;;;;;;22.74;52.19;95331.19;5055122;28;20406;-67
2022/06/16 08:05:03;;;;;;;20.50;18.58;;;;;;;23.09;50.84;95339.59;5056668;28;20233;-67
2022/06/16 08:07:29;;;;;;;19.90;18.13;;;;;;;23.36;49.42;95336.59;5046565;28;20220;-64
2022/06/16 08:09:54;;;;;;;19.60;17.80;;;;;;;23.50;47.80;95331.91;5051979;28;20228;-66
2022/06/16 08:12:20;;;;;;;22.10;18.67;;;;;;;23.40;47.76;95334.31;5058937;28;20228;-68
2022/06/16 08:14:47;;;;;;;19.15;17.42;;;;;;;23.21;48.24;95323.56;5050735;28;20228;-68
2022/06/16 08:17:26;;;;;;;19.58;17.88;;;;;;;23.01;49.36;95331.81;5057292;28;20233;-68
2022/06/16 08:19:52;;;;;;;19.52;17.83;;;;;;;23.07;49.70;95333.63;5054809;28;20221;-66
2022/06/16 08:22:19;;;;;;;19.35;17.45;;;;;;;23.11;49.14;95339.34;5058549;28;20228;-70
2022/06/16 08:24:45;;;;;;;19.20;17.40;;;;;;;23.16;49.20;95341.38;5053643;28;20217;-64
2022/06/16 08:27:11;;;;;;;16.65;15.15;;;;;;;23.38;47.05;95342.56;5056868;28;20228;-65
2022/06/16 08:29:39;;;;;;;18.00;16.30;;;;;;;23.59;47.17;95341.28;5049917;28;20225;-67
2022/06/16 08:32:06;;;;;;;17.90;16.08;;;;;;;23.79;46.26;95346.47;5052924;28;20220;-66
2022/06/16 08:34:31;;;;;;;17.02;15.57;;;;;;;23.68;46.52;95339.97;5056594;28;20230;-67
2022/06/16 08:36:57;;;;;;;17.63;16.13;;;;;;;23.64;45.64;95340.63;5068696;28;20218;-62
2022/06/16 08:39:22;;;;;;;16.23;14.85;;;;;;;23.64;44.65;95333.38;5072794;28;20217;-67
2022/06/16 08:42:12;;;;;;;14.68;13.15;;;;;;;23.97;43.98;95326.78;5056842;28;20224;-69
2022/06/16 08:44:46;;;;;;;19.02;16.38;;;;;;;24.17;43.97;95331.88;5055480;28;20261;-66
2022/06/16 08:47:34;;;;;;;18.05;16.55;;;;;;;24.11;45.12;95333.63;5049648;28;20231;-64
2022/06/16 08:50:14;;;;;;;15.25;13.85;;;;;;;23.38;44.73;95323.78;5051984;28;20221;-68
2022/06/16 08:53:14;;;;;;;14.75;13.55;;;;;;;23.60;43.55;95332.19;5052570;28;20213;-66
2022/06/16 08:56:01;;;;;;;18.70;15.00;;;;;;;23.99;42.14;95322.00;5050070;28;20210;-66
2022/06/16 08:58:52;;;;;;;15.18;13.85;;;;;;;24.11;42.93;95325.56;5053215;28;20208;-68
2022/06/16 09:01:25;;;;;;;16.63;15.10;;;;;;;24.00;42.88;95320.94;5059927;28;20243;-69
2022/06/16 09:04:23;;;;;;;16.48;15.02;;;;;;;24.03;43.76;95328.59;5048679;28;20217;-69
2022/06/16 09:07:01;;;;;;;16.23;14.73;;;;;;;24.07;43.94;95324.38;5066337;28;20229;-66
2022/06/16 09:10:16;;;;;;;15.32;13.93;;;;;;;24.16;41.85;95319.50;5051057;28;20308;-68
2022/06/16 09:13:10;;;;;;;14.55;13.35;;;;;;;24.49;40.87;95326.28;5045240;28;20225;-67
2022/06/16 09:15:54;;;;;;;13.60;12.48;;;;;;;24.63;40.21;95315.06;5045407;28;20217;-66
2022/06/16 09:18:25;;;;;;;14.75;13.27;;;;;;;24.46;41.04;95322.19;5047715;28;20233;-67
2022/06/16 09:21:25;;;;;;;12.45;11.27;;;;;;;24.73;39.21;95313.69;5049259;28;20232;-68
2022/06/16 09:24:09;;;;;;;15.25;13.98;;;;;;;24.34;40.96;95319.41;5049046;28;20225;-63
2022/06/16 09:26:43;;;;;;;14.32;13.07;;;;;;;24.65;40.30;95315.66;5048836;28;20269;-67
2022/06/16 09:29:20;;;;;;;15.18;13.98;;;;;;;24.63;40.63;95312.38;5059049;28;20315;-67
2022/06/16 09:32:11;;;;;;;13.75;12.65;;;;;;;24.90;39.14;95306.53;5053619;28;20209;-67
2022/06/16 09:34:36;;;;;;;14.95;13.75;;;;;;;24.86;39.90;95302.69;5055432;28;20205;-67
2022/06/16 09:37:31;;;;;;;14.63;13.27;;;;;;;24.80;40.41;95303.59;5055193;28;20203;-64
2022/06/16 09:40:13;;;;;;;17.17;15.65;;;;;;;24.84;41.01;95299.41;5061398;28;20266;-68
2022/06/16 09:43:03;;;;;;;14.48;13.27;;;;;;;24.74;40.64;95300.00;5072125;28;20343;-66
2022/06/16 09:45:37;;;;;;;13.45;12.25;;;;;;;24.97;39.70;95292.97;5054118;28;20233;-69
2022/06/16 09:48:02;;;;;;;14.52;12.88;;;;;;;25.25;38.20;95293.06;5055822;28;20221;-68
2022/06/16 09:50:31;;;;;;;17.02;13.77;;;;;;;25.45;39.96;95284.63;5052991;28;20236;-68
2022/06/16 09:53:05;;;;;;;13.90;12.57;;;;;;;25.84;38.52;95278.66;5059995;28;20232;-69
2022/06/16 09:55:41;;;;;;;13.35;12.23;;;;;;;26.15;37.52;95288.13;5052521;28;20213;-66
2022/06/16 09:58:26;;;;;;;11.80;10.90;;;;;;;26.06;36.26;95287.72;5036684;28;20231;-69
2022/06/16 10:00:54;;;;;;;14.00;12.82;;;;;;;26.09;36.25;95289.06;5054240;28;20313;-67
2022/06/16 10:03:33;;;;;;;14.18;12.85;;;;;;;26.23;36.35;95284.22;5054034;28;20676;-67
2022/06/16 10:06:18;;;;;;;12.70;11.68;;;;;;;26.40;36.29;95283.16;5051442;28;20274;-67
2022/06/16 10:08:53;;;;;;;12.75;11.65;;;;;;;26.14;34.85;95275.69;5015777;28;20233;-67
2022/06/16 10:11:28;;;;;;;13.07;12.07;;;;;;;26.27;36.58;95277.25;5018577;28;20235;-66
2022/06/16 10:14:00;;;;;;;12.52;11.45;;;;;;;25.78;35.29;95287.69;5035744;28;20225;-68
2022/06/16 10:16:38;;;;;;;14.20;13.00;;;;;;;26.09;35.89;95275.59;5021924;28;20565;-63
2022/06/16 10:19:06;;;;;;;13.40;12.10;;;;;;;26.39;35.08;95276.13;5016635;28;20232;-66
2022/06/16 10:21:34;;;;;;;13.68;12.48;;;;;;;26.63;34.81;95276.00;5033100;28;20229;-68
2022/06/16 10:24:02;;;;;;;12.82;11.55;;;;;;;26.68;34.26;95280.63;5035501;28;20252;-70
2022/06/16 10:26:28;;;;;;;11.88;10.82;;;;;;;26.88;33.54;95280.16;5034469;28;20230;-64
2022/06/16 10:29:11;;;;;;;12.38;11.23;;;;;;;26.83;32.55;95276.28;5022833;28;20282;-64
2022/06/16 10:31:45;;;;;;;12.82;11.82;;;;;;;26.84;33.16;95266.34;5016428;28;20292;-66
2022/06/16 10:34:38;;;;;;;11.88;10.93;;;;;;;26.86;32.93;95263.38;5037179;28;20691;-67
2022/06/16 10:37:09;;;;;;;11.85;10.85;;;;;;;26.30;33.45;95257.91;5019544;28;20263;-69
2022/06/16 10:39:43;;;;;;;13.50;12.32;;;;;;;26.50;34.21;95265.50;5036347;28;20394;-68
2022/06/16 10:42:17;;;;;;;12.50;11.40;;;;;;;26.79;34.51;95258.97;5032467;28;20229;-71
2022/06/16 10:44:50;;;;;;;13.52;12.40;;;;;;;26.99;34.15;95257.63;5016036;28;20239;-73
2022/06/16 10:47:21;;;;;;;14.35;12.90;;;;;;;27.30;35.88;95253.50;5056415;28;20233;-67
2022/06/16 10:49:48;;;;;;;13.25;12.15;;;;;;;26.92;36.29;95251.59;5058150;28;20201;-68
2022/06/16 10:52:23;;;;;;;12.77;11.73;;;;;;;27.20;34.80;95250.66;5053063;28;20302;-73
2022/06/16 10:55:05;;;;;;;12.80;10.68;;;;;;;26.31;34.20;95240.69;5051446;28;20228;-64
2022/06/16 10:57:40;;;;;;;12.48;11.27;;;;;;;26.59;34.88;95250.56;5054172;28;20218;-65
2022/06/16 11:00:23;;;;;;;13.45;12.15;;;;;;;26.90;36.12;95249.16;5054623;28;20557;-65
2022/06/16 11:03:17;;;;;;;13.48;12.23;;;;;;;27.40;35.33;95247.38;5068399;27;20229;-70
2022/06/16 11:05:55;;;;;;;11.85;10.98;;;;;;;27.75;33.29;95244.28;5050131;28;20233;-68
2022/06/16 11:08:22;;;;;;;13.00;11.75;;;;;;;27.73;34.64;95248.31;5070350;28;20221;-67
2022/06/16 11:10:57;;;;;;;12.65;11.52;;;;;;;27.81;34.14;95243.31;5053122;28;20201;-67
2022/06/16 11:13:33;;;;;;;13.02;11.68;;;;;;;28.00;32.98;95238.34;5050900;28;20197;-66
2022/06/16 11:15:58;;;;;;;12.18;11.02;;;;;;;27.92;31.85;95241.50;5049438;28;20224;-68
2022/06/16 11:18:29;;;;;;;12.98;11.88;;;;;;;27.70;32.65;95239.66;5056461;28;20221;-69
2022/06/16 11:20:58;;;;;;;13.02;11.80;;;;;;;27.53;32.77;95244.28;5050588;28;20623;-65
2022/06/16 11:23:34;;;;;;;11.48;10.48;;;;;;;27.31;32.83;95243.50;5056449;28;20241;-66
2022/06/16 11:25:59;;;;;;;11.45;10.45;;;;;;;26.99;33.71;95238.75;5053173;28;20224;-65
2022/06/16 11:28:27;;;;;;;12.05;10.95;;;;;;;26.48;33.42;95232.59;5062273;28;20243;-65
2022/06/16 11:30:58;;;;;;;12.18;11.27;;;;;;;26.79;32.74;95232.00;5053986;28;20273;-67
2022/06/16 11:36:44;;;;;;;11.88;10.90;;;;;;;27.56;32.49;95218.66;5048321;28;20283;-66
2022/06/16 11:39:17;;;;;;;11.93;10.75;;;;;;;27.36;32.60;95225.47;5067724;28;20351;-64
2022/06/16 11:41:49;;;;;;;11.88;10.98;;;;;;;27.66;32.77;95225.00;5050360;28;20257;-67
2022/06/16 11:44:52;;;;;;;13.32;12.18;;;;;;;28.12;31.46;95224.66;5053027;28;20217;-66
2022/06/16 11:47:52;;;;;;;11.70;10.60;;;;;;;28.06;30.68;95223.81;5054614;28;20229;-65
2022/06/16 11:50:20;;;;;;;11.18;10.18;;;;;;;28.45;30.46;95217.41;5066531;28;20221;-63
2022/06/16 11:52:48;;;;;;;12.65;11.55;;;;;;;28.76;30.62;95215.72;5055973;28;20205;-64
2022/06/16 11:55:20;;;;;;;14.35;12.30;;;;;;;28.61;31.20;95221.03;5052530;28;20295;-65
2022/06/16 11:58:01;;;;;;;13.23;11.80;;;;;;;28.13;33.24;95215.50;5054788;28;20290;-69
2022/06/16 12:00:34;;;;;;;12.32;11.13;;;;;;;27.70;31.41;95218.03;5053617;28;20225;-71
2022/06/16 12:03:12;;;;;;;11.23;10.40;;;;;;;27.27;31.96;95213.50;5046809;28;20328;-71